sim
Sign-in with your pilot id or email,
or register
Callsign
Passwort

Schedule Details

Flight Number: EWG1753 (3)
Departure: London Stansted Airport (EGSS) at 18:35
Arrival: Munich Airport (EDDM) at 20:20
Route: Eurowings Passenger Schedule. Enter filed route here before submitting Pirep.

Weather Information
Getting current METAR information for EGSS 192050Z AUTO 03009KT 9999 NCD 15/11 Q1019
Getting current METAR information for EDDM 192050Z VRB01KT CAVOK 11/10 Q1018 NOSIG

Schedule Frequency

Route Map